sensor_id;sensor_type;location;lat;lon;timestamp;pressure;altitude;pressure_sealevel;temperature;humidity
85197;BME280;75566;42.698;23.346;2024-03-02T00:01:54;94968.84;;;8.80;70.68
85197;BME280;75566;42.698;23.346;2024-03-02T00:04:20;94969.41;;;8.78;71.65
85197;BME280;75566;42.698;23.346;2024-03-02T00:06:45;94969.03;;;8.82;71.70
85197;BME280;75566;42.698;23.346;2024-03-02T00:09:11;94981.47;;;8.90;71.62
85197;BME280;75566;42.698;23.346;2024-03-02T00:11:37;94973.09;;;8.88;71.15
85197;BME280;75566;42.698;23.346;2024-03-02T00:14:04;94973.63;;;8.87;70.26
85197;BME280;75566;42.698;23.346;2024-03-02T00:16:33;94971.25;;;8.83;70.71
85197;BME280;75566;42.698;23.346;2024-03-02T00:19:03;94975.38;;;8.77;70.47
85197;BME280;75566;42.698;23.346;2024-03-02T00:21:30;94966.94;;;8.67;70.22
85197;BME280;75566;42.698;23.346;2024-03-02T00:23:57;94967.97;;;8.56;70.76
85197;BME280;75566;42.698;23.346;2024-03-02T00:26:22;94946.66;;;8.33;71.90
85197;BME280;75566;42.698;23.346;2024-03-02T00:28:48;94959.88;;;8.43;71.18
85197;BME280;75566;42.698;23.346;2024-03-02T00:31:15;94964.16;;;8.38;72.26
85197;BME280;75566;42.698;23.346;2024-03-02T00:33:46;94961.91;;;8.50;72.04
85197;BME280;75566;42.698;23.346;2024-03-02T00:36:14;94959.78;;;8.56;71.12
85197;BME280;75566;42.698;23.346;2024-03-02T00:38:50;94954.63;;;8.45;71.14
85197;BME280;75566;42.698;23.346;2024-03-02T00:41:28;94962.09;;;8.52;72.09
85197;BME280;75566;42.698;23.346;2024-03-02T00:44:03;94962.91;;;8.60;70.34
85197;BME280;75566;42.698;23.346;2024-03-02T00:49:00;94962.84;;;8.52;72.46
85197;BME280;75566;42.698;23.346;2024-03-02T00:51:28;94962.50;;;8.56;71.25
85197;BME280;75566;42.698;23.346;2024-03-02T00:53:58;94955.31;;;8.66;71.47
85197;BME280;75566;42.698;23.346;2024-03-02T00:56:24;94953.88;;;8.65;71.05
85197;BME280;75566;42.698;23.346;2024-03-02T00:58:50;94953.66;;;8.63;70.54
85197;BME280;75566;42.698;23.346;2024-03-02T01:01:16;94947.31;;;8.68;71.70
85197;BME280;75566;42.698;23.346;2024-03-02T01:03:42;94954.44;;;8.71;71.16
85197;BME280;75566;42.698;23.346;2024-03-02T01:06:08;94949.56;;;8.78;71.70
85197;BME280;75566;42.698;23.346;2024-03-02T01:08:37;94950.00;;;8.89;70.28
85197;BME280;75566;42.698;23.346;2024-03-02T01:11:04;94949.88;;;8.95;71.22
85197;BME280;75566;42.698;23.346;2024-03-02T01:13:30;94954.63;;;9.02;70.39
85197;BME280;75566;42.698;23.346;2024-03-02T01:15:56;94936.25;;;9.03;69.98
85197;BME280;75566;42.698;23.346;2024-03-02T01:18:21;94937.72;;;9.04;69.90
85197;BME280;75566;42.698;23.346;2024-03-02T01:20:50;94934.47;;;9.05;70.53
85197;BME280;75566;42.698;23.346;2024-03-02T01:23:24;94939.56;;;9.09;70.93
85197;BME280;75566;42.698;23.346;2024-03-02T01:25:50;94932.50;;;9.13;69.94
85197;BME280;75566;42.698;23.346;2024-03-02T01:28:17;94932.53;;;9.21;70.33
85197;BME280;75566;42.698;23.346;2024-03-02T01:30:43;94929.47;;;9.25;69.62
85197;BME280;75566;42.698;23.346;2024-03-02T01:33:08;94921.84;;;9.31;68.49
85197;BME280;75566;42.698;23.346;2024-03-02T01:35:34;94929.50;;;9.40;69.71
85197;BME280;75566;42.698;23.346;2024-03-02T01:38:00;94924.78;;;9.41;69.42
85197;BME280;75566;42.698;23.346;2024-03-02T01:40:26;94918.06;;;9.42;68.99
85197;BME280;75566;42.698;23.346;2024-03-02T01:42:53;94920.44;;;9.53;68.76
85197;BME280;75566;42.698;23.346;2024-03-02T01:45:23;94926.47;;;9.51;69.00
85197;BME280;75566;42.698;23.346;2024-03-02T01:47:49;94918.78;;;9.42;69.25
85197;BME280;75566;42.698;23.346;2024-03-02T01:50:16;94918.59;;;9.40;69.67
85197;BME280;75566;42.698;23.346;2024-03-02T01:52:41;94913.69;;;9.39;69.60
85197;BME280;75566;42.698;23.346;2024-03-02T01:55:09;94908.56;;;9.35;70.30
85197;BME280;75566;42.698;23.346;2024-03-02T01:57:35;94922.75;;;9.33;70.28
85197;BME280;75566;42.698;23.346;2024-03-02T02:00:00;94918.78;;;9.34;70.11
85197;BME280;75566;42.698;23.346;2024-03-02T02:02:26;94915.66;;;9.30;70.31
85197;BME280;75566;42.698;23.346;2024-03-02T02:04:52;94921.47;;;9.27;71.16
85197;BME280;75566;42.698;23.346;2024-03-02T02:07:17;94913.41;;;9.21;70.77
85197;BME280;75566;42.698;23.346;2024-03-02T02:09:43;94922.53;;;9.24;70.18
85197;BME280;75566;42.698;23.346;2024-03-02T02:12:09;94917.25;;;9.18;70.56
85197;BME280;75566;42.698;23.346;2024-03-02T02:14:35;94914.84;;;9.14;71.88
85197;BME280;75566;42.698;23.346;2024-03-02T02:17:01;94917.78;;;9.17;71.07
85197;BME280;75566;42.698;23.346;2024-03-02T02:19:26;94917.78;;;9.17;70.97
85197;BME280;75566;42.698;23.346;2024-03-02T02:21:52;94907.00;;;9.11;71.20
85197;BME280;75566;42.698;23.346;2024-03-02T02:24:17;94903.50;;;9.03;71.33
85197;BME280;75566;42.698;23.346;2024-03-02T02:26:43;94916.63;;;9.04;71.86
85197;BME280;75566;42.698;23.346;2024-03-02T02:29:09;94913.69;;;9.02;71.56
85197;BME280;75566;42.698;23.346;2024-03-02T02:31:38;94909.88;;;8.98;71.78
85197;BME280;75566;42.698;23.346;2024-03-02T02:34:04;94905.13;;;8.98;72.57
85197;BME280;75566;42.698;23.346;2024-03-02T02:36:31;94909.34;;;8.99;70.88
85197;BME280;75566;42.698;23.346;2024-03-02T02:38:57;94911.69;;;9.03;70.88
85197;BME280;75566;42.698;23.346;2024-03-02T02:41:23;94897.50;;;8.97;72.00
85197;BME280;75566;42.698;23.346;2024-03-02T02:43:48;94903.31;;;9.01;70.57
85197;BME280;75566;42.698;23.346;2024-03-02T02:46:14;94905.72;;;9.04;71.33
85197;BME280;75566;42.698;23.346;2024-03-02T02:48:39;94905.13;;;8.98;70.61
85197;BME280;75566;42.698;23.346;2024-03-02T02:51:05;94906.56;;;8.91;71.37
85197;BME280;75566;42.698;23.346;2024-03-02T02:53:31;94909.03;;;8.82;71.81
85197;BME280;75566;42.698;23.346;2024-03-02T02:55:56;94918.66;;;8.75;72.15
85197;BME280;75566;42.698;23.346;2024-03-02T02:58:22;94913.34;;;8.69;72.97
85197;BME280;75566;42.698;23.346;2024-03-02T03:00:47;94918.81;;;8.69;72.71
85197;BME280;75566;42.698;23.346;2024-03-02T03:03:13;94910.97;;;8.66;72.33
85197;BME280;75566;42.698;23.346;2024-03-02T03:05:38;94923.69;;;8.63;72.89
85197;BME280;75566;42.698;23.346;2024-03-02T03:08:04;94922.06;;;8.68;72.23
85197;BME280;75566;42.698;23.346;2024-03-02T03:10:29;94917.66;;;8.65;72.71
85197;BME280;75566;42.698;23.346;2024-03-02T03:12:55;94912.41;;;8.67;72.33
85197;BME280;75566;42.698;23.346;2024-03-02T03:15:21;94913.56;;;8.71;72.89
85197;BME280;75566;42.698;23.346;2024-03-02T03:17:47;94915.00;;;8.72;72.62
85197;BME280;75566;42.698;23.346;2024-03-02T03:20:12;94916.47;;;8.73;72.56
85197;BME280;75566;42.698;23.346;2024-03-02T03:22:39;94910.06;;;8.71;73.41
85197;BME280;75566;42.698;23.346;2024-03-02T03:25:05;94911.56;;;8.72;73.11
85197;BME280;75566;42.698;23.346;2024-03-02T03:27:30;94923.56;;;8.77;72.42
85197;BME280;75566;42.698;23.346;2024-03-02T03:29:56;94923.97;;;8.81;73.77
85197;BME280;75566;42.698;23.346;2024-03-02T03:32:22;94913.44;;;8.85;72.60
85197;BME280;75566;42.698;23.346;2024-03-02T03:34:47;94919.63;;;8.85;71.84
85197;BME280;75566;42.698;23.346;2024-03-02T03:37:14;94914.03;;;8.91;71.79
85197;BME280;75566;42.698;23.346;2024-03-02T03:39:39;94919.13;;;8.94;71.88
85197;BME280;75566;42.698;23.346;2024-03-02T03:42:05;94912.16;;;8.86;72.72
85197;BME280;75566;42.698;23.346;2024-03-02T03:44:30;94912.94;;;8.94;71.36
85197;BME280;75566;42.698;23.346;2024-03-02T03:46:56;94916.25;;;9.00;72.75
85197;BME280;75566;42.698;23.346;2024-03-02T03:49:22;94900.25;;;8.97;72.48
85197;BME280;75566;42.698;23.346;2024-03-02T03:51:47;94912.63;;;9.05;72.17
85197;BME280;75566;42.698;23.346;2024-03-02T03:54:13;94915.38;;;9.05;72.29
85197;BME280;75566;42.698;23.346;2024-03-02T03:56:38;94902.22;;;8.96;71.97
85197;BME280;75566;42.698;23.346;2024-03-02T03:59:04;94901.69;;;8.98;72.22
85197;BME280;75566;42.698;23.346;2024-03-02T04:01:30;94903.50;;;9.03;71.17
85197;BME280;75566;42.698;23.346;2024-03-02T04:03:57;94902.78;;;9.02;72.36
85197;BME280;75566;42.698;23.346;2024-03-02T04:06:23;94909.91;;;9.05;71.74
85197;BME280;75566;42.698;23.346;2024-03-02T04:08:49;94904.47;;;9.05;71.86
85197;BME280;75566;42.698;23.346;2024-03-02T04:11:15;94901.53;;;9.03;71.71
85197;BME280;75566;42.698;23.346;2024-03-02T04:13:40;94912.06;;;8.99;71.69
85197;BME280;75566;42.698;23.346;2024-03-02T04:16:06;94908.94;;;8.95;72.18
85197;BME280;75566;42.698;23.346;2024-03-02T04:18:31;94907.47;;;8.94;72.95
85197;BME280;75566;42.698;23.346;2024-03-02T04:21:00;94914.03;;;8.91;72.80
85197;BME280;75566;42.698;23.346;2024-03-02T04:23:26;94899.22;;;8.79;72.43
85197;BME280;75566;42.698;23.346;2024-03-02T04:25:52;94915.06;;;8.80;73.88
85197;BME280;75566;42.698;23.346;2024-03-02T04:28:17;94913.25;;;8.83;73.29
85197;BME280;75566;42.698;23.346;2024-03-02T04:30:42;94924.50;;;8.79;72.81
85197;BME280;75566;42.698;23.346;2024-03-02T04:33:08;94909.59;;;8.80;73.24
85197;BME280;75566;42.698;23.346;2024-03-02T04:35:38;94914.09;;;8.78;72.43
85197;BME280;75566;42.698;23.346;2024-03-02T04:38:03;94914.94;;;8.65;73.87
85197;BME280;75566;42.698;23.346;2024-03-02T04:40:29;94925.38;;;8.74;72.52
85197;BME280;75566;42.698;23.346;2024-03-02T04:42:54;94922.66;;;8.74;72.89
85197;BME280;75566;42.698;23.346;2024-03-02T04:45:20;94921.94;;;8.73;74.01
85197;BME280;75566;42.698;23.346;2024-03-02T04:47:45;94914.66;;;8.76;72.82
85197;BME280;75566;42.698;23.346;2024-03-02T04:50:11;94919.94;;;8.82;73.18
85197;BME280;75566;42.698;23.346;2024-03-02T04:52:36;94916.31;;;8.79;72.66
85197;BME280;75566;42.698;23.346;2024-03-02T04:55:02;94930.13;;;8.81;73.97
85197;BME280;75566;42.698;23.346;2024-03-02T04:57:46;94932.88;;;8.81;74.10
85197;BME280;75566;42.698;23.346;2024-03-02T05:00:13;94933.97;;;8.86;73.94
85197;BME280;75566;42.698;23.346;2024-03-02T05:02:38;94926.38;;;8.92;74.21
85197;BME280;75566;42.698;23.346;2024-03-02T05:05:04;94934.03;;;8.93;75.03
85197;BME280;75566;42.698;23.346;2024-03-02T05:07:29;94925.47;;;8.89;73.75
85197;BME280;75566;42.698;23.346;2024-03-02T05:09:55;94933.50;;;8.95;73.30
85197;BME280;75566;42.698;23.346;2024-03-02T05:12:21;94935.44;;;8.87;73.41
85197;BME280;75566;42.698;23.346;2024-03-02T05:15:05;94943.28;;;8.90;75.23
85197;BME280;75566;42.698;23.346;2024-03-02T05:17:32;94946.41;;;8.94;74.74
85197;BME280;75566;42.698;23.346;2024-03-02T05:19:58;94941.50;;;8.93;73.86
85197;BME280;75566;42.698;23.346;2024-03-02T05:22:24;94943.81;;;8.89;74.75
85197;BME280;75566;42.698;23.346;2024-03-02T05:24:49;94948.19;;;8.92;73.84
85197;BME280;75566;42.698;23.346;2024-03-02T05:27:15;94951.13;;;8.94;73.93
85197;BME280;75566;42.698;23.346;2024-03-02T05:29:40;94956.56;;;8.94;73.54
85197;BME280;75566;42.698;23.346;2024-03-02T05:32:06;94959.50;;;8.96;73.97
85197;BME280;75566;42.698;23.346;2024-03-02T05:34:31;94952.06;;;8.97;73.88
85197;BME280;75566;42.698;23.346;2024-03-02T05:37:00;94959.50;;;8.96;74.71
85197;BME280;75566;42.698;23.346;2024-03-02T05:39:25;94957.31;;;8.94;74.53
85197;BME280;75566;42.698;23.346;2024-03-02T05:41:50;94967.47;;;8.94;74.16
85197;BME280;75566;42.698;23.346;2024-03-02T05:44:16;94963.84;;;8.91;75.12
85197;BME280;75566;42.698;23.346;2024-03-02T05:46:42;94960.00;;;8.87;74.17
85197;BME280;75566;42.698;23.346;2024-03-02T05:49:08;94968.97;;;8.95;75.30
85197;BME280;75566;42.698;23.346;2024-03-02T05:51:35;94961.09;;;8.91;75.43
85197;BME280;75566;42.698;23.346;2024-03-02T05:54:00;94971.69;;;8.95;74.69
85197;BME280;75566;42.698;23.346;2024-03-02T05:56:26;94976.78;;;8.99;74.42
85197;BME280;75566;42.698;23.346;2024-03-02T05:58:51;94978.78;;;8.98;75.41
85197;BME280;75566;42.698;23.346;2024-03-02T06:01:33;94978.97;;;9.00;75.44
85197;BME280;75566;42.698;23.346;2024-03-02T06:03:59;94971.88;;;8.97;75.34
85197;BME280;75566;42.698;23.346;2024-03-02T06:06:24;94974.06;;;8.99;74.92
85197;BME280;75566;42.698;23.346;2024-03-02T06:08:51;94979.38;;;9.04;75.46
85197;BME280;75566;42.698;23.346;2024-03-02T06:11:17;94980.09;;;9.05;74.75
85197;BME280;75566;42.698;23.346;2024-03-02T06:13:44;94973.72;;;9.02;75.29
85197;BME280;75566;42.698;23.346;2024-03-02T06:16:10;94974.44;;;9.03;74.64
85197;BME280;75566;42.698;23.346;2024-03-02T06:18:35;94976.63;;;8.97;76.04
85197;BME280;75566;42.698;23.346;2024-03-02T06:21:01;94977.16;;;8.95;74.81
85197;BME280;75566;42.698;23.346;2024-03-02T06:23:27;94975.09;;;8.88;76.11
85197;BME280;75566;42.698;23.346;2024-03-02T06:25:52;94977.66;;;8.93;74.84
85197;BME280;75566;42.698;23.346;2024-03-02T06:28:18;94982.22;;;8.91;75.73
85197;BME280;75566;42.698;23.346;2024-03-02T06:30:44;94977.09;;;8.87;75.36
85197;BME280;75566;42.698;23.346;2024-03-02T06:33:10;94982.22;;;8.91;75.83
85197;BME280;75566;42.698;23.346;2024-03-02T06:35:36;94987.06;;;8.85;76.56
85197;BME280;75566;42.698;23.346;2024-03-02T06:38:01;94989.28;;;8.86;76.02
85197;BME280;75566;42.698;23.346;2024-03-02T06:40:27;94987.06;;;8.85;75.52
85197;BME280;75566;42.698;23.346;2024-03-02T06:42:52;94984.66;;;8.73;75.45
85197;BME280;75566;42.698;23.346;2024-03-02T06:45:18;94987.38;;;8.73;76.15
85197;BME280;75566;42.698;23.346;2024-03-02T06:47:43;94986.56;;;8.65;77.49
85197;BME280;75566;42.698;23.346;2024-03-02T06:50:09;94981.75;;;8.50;76.59
85197;BME280;75566;42.698;23.346;2024-03-02T06:52:35;94992.28;;;8.54;77.77
85197;BME280;75566;42.698;23.346;2024-03-02T06:55:01;94998.13;;;8.58;77.21
85197;BME280;75566;42.698;23.346;2024-03-02T06:57:26;95001.94;;;8.55;76.10
85197;BME280;75566;42.698;23.346;2024-03-02T06:59:52;95000.66;;;8.56;76.91
85197;BME280;75566;42.698;23.346;2024-03-02T07:02:20;94995.00;;;8.54;77.79
85197;BME280;75566;42.698;23.346;2024-03-02T07:04:46;95000.88;;;8.58;76.82
85197;BME280;75566;42.698;23.346;2024-03-02T07:07:12;94993.38;;;8.51;77.48
85197;BME280;75566;42.698;23.346;2024-03-02T07:09:38;95005.06;;;8.59;76.59
85197;BME280;75566;42.698;23.346;2024-03-02T07:12:03;94999.63;;;8.59;77.94
85197;BME280;75566;42.698;23.346;2024-03-02T07:14:29;95006.91;;;8.64;76.30
85197;BME280;75566;42.698;23.346;2024-03-02T07:17:13;94997.16;;;8.48;77.36
85197;BME280;75566;42.698;23.346;2024-03-02T07:19:39;95004.13;;;8.57;76.95
85197;BME280;75566;42.698;23.346;2024-03-02T07:22:08;95010.91;;;8.63;77.85
85197;BME280;75566;42.698;23.346;2024-03-02T07:24:42;95009.38;;;8.54;77.04
85197;BME280;75566;42.698;23.346;2024-03-02T07:27:09;95012.09;;;8.54;77.91
85197;BME280;75566;42.698;23.346;2024-03-02T07:29:35;95010.66;;;8.53;77.16
85197;BME280;75566;42.698;23.346;2024-03-02T07:32:01;95015.63;;;8.63;77.72
85197;BME280;75566;42.698;23.346;2024-03-02T07:34:27;95017.94;;;8.59;76.73
85197;BME280;75566;42.698;23.346;2024-03-02T07:36:53;95015.63;;;8.63;77.71
85197;BME280;75566;42.698;23.346;2024-03-02T07:39:18;95012.69;;;8.61;77.04
85197;BME280;75566;42.698;23.346;2024-03-02T07:41:45;95008.72;;;8.62;77.43
85197;BME280;75566;42.698;23.346;2024-03-02T07:44:11;95023.06;;;8.62;76.94
85197;BME280;75566;42.698;23.346;2024-03-02T07:46:42;95026.19;;;8.66;78.05
85197;BME280;75566;42.698;23.346;2024-03-02T07:49:08;95025.34;;;8.71;76.63
85197;BME280;75566;42.698;23.346;2024-03-02T07:51:34;95017.53;;;8.76;77.22
85197;BME280;75566;42.698;23.346;2024-03-02T07:53:59;95018.69;;;8.80;77.35
85197;BME280;75566;42.698;23.346;2024-03-02T07:56:25;95025.44;;;8.87;76.60
85197;BME280;75566;42.698;23.346;2024-03-02T07:58:51;95031.25;;;8.83;76.08
85197;BME280;75566;42.698;23.346;2024-03-02T08:01:17;95026.72;;;8.86;75.72
85197;BME280;75566;42.698;23.346;2024-03-02T08:03:43;95031.09;;;8.89;75.78
85197;BME280;75566;42.698;23.346;2024-03-02T08:06:14;95029.88;;;8.98;75.71
85197;BME280;75566;42.698;23.346;2024-03-02T08:08:40;95033.22;;;9.04;76.39
85197;BME280;75566;42.698;23.346;2024-03-02T08:11:06;95025.56;;;9.02;76.47
85197;BME280;75566;42.698;23.346;2024-03-02T08:13:31;95032.19;;;9.14;75.41
85197;BME280;75566;42.698;23.346;2024-03-02T08:15:57;95032.00;;;9.12;76.21
85197;BME280;75566;42.698;23.346;2024-03-02T08:18:23;95035.44;;;9.13;75.56
85197;BME280;75566;42.698;23.346;2024-03-02T08:20:49;95027.94;;;9.06;75.05
85197;BME280;75566;42.698;23.346;2024-03-02T08:23:14;95037.38;;;9.05;75.30
85197;BME280;75566;42.698;23.346;2024-03-02T08:25:40;95035.53;;;9.00;76.65
85197;BME280;75566;42.698;23.346;2024-03-02T08:28:05;95037.88;;;8.96;76.99
85197;BME280;75566;42.698;23.346;2024-03-02T08:30:31;95032.22;;;8.93;76.76
85197;BME280;75566;42.698;23.346;2024-03-02T08:32:57;95026.50;;;8.84;77.34
85197;BME280;75566;42.698;23.346;2024-03-02T08:35:22;95036.56;;;8.89;77.45
85197;BME280;75566;42.698;23.346;2024-03-02T08:37:48;95034.44;;;8.95;76.68
85197;BME280;75566;42.698;23.346;2024-03-02T08:40:14;95028.25;;;8.94;76.43
85197;BME280;75566;42.698;23.346;2024-03-02T08:42:40;95033.75;;;9.02;77.48
85197;BME280;75566;42.698;23.346;2024-03-02T08:45:07;95027.88;;;8.98;76.72
85197;BME280;75566;42.698;23.346;2024-03-02T08:47:32;95031.91;;;8.97;76.53
85197;BME280;75566;42.698;23.346;2024-03-02T08:49:59;95032.28;;;9.01;77.13
85197;BME280;75566;42.698;23.346;2024-03-02T08:52:25;95030.28;;;9.02;77.38
85197;BME280;75566;42.698;23.346;2024-03-02T08:54:51;95029.66;;;9.17;77.46
85197;BME280;75566;42.698;23.346;2024-03-02T08:57:16;95015.47;;;9.18;76.50
85197;BME280;75566;42.698;23.346;2024-03-02T08:59:42;95024.47;;;9.34;75.80
85197;BME280;75566;42.698;23.346;2024-03-02T09:02:07;95033.97;;;9.41;75.42
85197;BME280;75566;42.698;23.346;2024-03-02T09:04:33;95031.81;;;9.47;75.83
85197;BME280;75566;42.698;23.346;2024-03-02T09:06:58;95037.50;;;9.57;76.00
85197;BME280;75566;42.698;23.346;2024-03-02T09:09:24;95034.81;;;9.64;75.60
85197;BME280;75566;42.698;23.346;2024-03-02T09:11:49;95029.56;;;9.74;75.44
85197;BME280;75566;42.698;23.346;2024-03-02T09:14:15;95032.19;;;9.87;74.32
85197;BME280;75566;42.698;23.346;2024-03-02T09:16:40;95028.00;;;9.94;73.37
85197;BME280;75566;42.698;23.346;2024-03-02T09:19:06;95030.59;;;10.00;74.25
85197;BME280;75566;42.698;23.346;2024-03-02T09:21:32;95042.94;;;9.93;73.78
85197;BME280;75566;42.698;23.346;2024-03-02T09:23:58;95044.59;;;9.96;74.05
85197;BME280;75566;42.698;23.346;2024-03-02T09:26:23;95039.31;;;9.98;74.24
85197;BME280;75566;42.698;23.346;2024-03-02T09:28:50;95043.34;;;10.05;73.61
85197;BME280;75566;42.698;23.346;2024-03-02T09:31:16;95041.75;;;10.17;72.71
85197;BME280;75566;42.698;23.346;2024-03-02T09:33:41;95044.34;;;10.30;71.79
85197;BME280;75566;42.698;23.346;2024-03-02T09:36:17;95042.69;;;10.27;72.75
85197;BME280;75566;42.698;23.346;2024-03-02T09:38:42;95042.69;;;10.27;72.33
85197;BME280;75566;42.698;23.346;2024-03-02T09:41:08;95053.09;;;10.36;72.43
85197;BME280;75566;42.698;23.346;2024-03-02T09:43:34;95050.38;;;10.36;71.77
85197;BME280;75566;42.698;23.346;2024-03-02T09:45:59;95047.47;;;10.42;71.37
85197;BME280;75566;42.698;23.346;2024-03-02T09:48:25;95053.84;;;10.45;71.29
85197;BME280;75566;42.698;23.346;2024-03-02T09:50:51;95043.84;;;10.40;71.37
85197;BME280;75566;42.698;23.346;2024-03-02T09:53:17;95055.50;;;10.40;70.90
85197;BME280;75566;42.698;23.346;2024-03-02T09:55:46;95045.09;;;10.39;70.85
85197;BME280;75566;42.698;23.346;2024-03-02T09:58:12;95058.38;;;10.34;71.26
85197;BME280;75566;42.698;23.346;2024-03-02T10:00:37;95055.13;;;10.36;71.60
85197;BME280;75566;42.698;23.346;2024-03-02T10:03:03;95059.50;;;10.39;71.61
85197;BME280;75566;42.698;23.346;2024-03-02T10:05:30;95054.41;;;10.35;70.45
85197;BME280;75566;42.698;23.346;2024-03-02T10:08:02;95055.13;;;10.36;70.66
85197;BME280;75566;42.698;23.346;2024-03-02T10:10:40;95054.78;;;10.40;70.55
85197;BME280;75566;42.698;23.346;2024-03-02T10:13:11;95059.13;;;10.43;72.01
85197;BME280;75566;42.698;23.346;2024-03-02T10:15:37;95054.03;;;10.47;71.93
85197;BME280;75566;42.698;23.346;2024-03-02T10:18:04;95052.78;;;10.48;72.39
85197;BME280;75566;42.698;23.346;2024-03-02T10:20:30;95049.47;;;10.34;71.47
85197;BME280;75566;42.698;23.346;2024-03-02T10:23:17;95049.28;;;10.32;72.15
85197;BME280;75566;42.698;23.346;2024-03-02T10:25:44;95050.56;;;10.39;71.99
85197;BME280;75566;42.698;23.346;2024-03-02T10:28:10;95040.91;;;10.45;72.09
85197;BME280;75566;42.698;23.346;2024-03-02T10:30:36;95050.75;;;10.56;71.77
85197;BME280;75566;42.698;23.346;2024-03-02T10:33:02;95038.00;;;10.66;70.90
85197;BME280;75566;42.698;23.346;2024-03-02T10:35:28;95034.03;;;10.67;71.16
85197;BME280;75566;42.698;23.346;2024-03-02T10:37:58;95049.34;;;10.78;70.79
85197;BME280;75566;42.698;23.346;2024-03-02T10:40:24;95042.22;;;10.75;70.45
85197;BME280;75566;42.698;23.346;2024-03-02T10:42:50;95040.03;;;10.73;70.88
85197;BME280;75566;42.698;23.346;2024-03-02T10:45:20;95041.66;;;10.76;70.29
85197;BME280;75566;42.698;23.346;2024-03-02T10:47:49;95032.38;;;10.80;71.13
85197;BME280;75566;42.698;23.346;2024-03-02T10:50:15;95040.03;;;10.73;70.65
85197;BME280;75566;42.698;23.346;2024-03-02T10:52:40;95034.75;;;10.75;70.54
85197;BME280;75566;42.698;23.346;2024-03-02T10:55:07;95027.63;;;10.72;70.52
85197;BME280;75566;42.698;23.346;2024-03-02T10:57:54;95032.19;;;10.77;70.27
85197;BME280;75566;42.698;23.346;2024-03-02T11:00:24;95038.41;;;10.78;71.00
85197;BME280;75566;42.698;23.346;2024-03-02T11:03:04;95031.28;;;10.83;69.35
85197;BME280;75566;42.698;23.346;2024-03-02T11:05:37;95031.28;;;10.83;69.01
85197;BME280;75566;42.698;23.346;2024-03-02T11:08:08;95027.63;;;10.80;70.03
85197;BME280;75566;42.698;23.346;2024-03-02T11:10:56;95019.06;;;10.84;69.85
85197;BME280;75566;42.698;23.346;2024-03-02T11:13:27;95030.56;;;10.90;69.50
85197;BME280;75566;42.698;23.346;2024-03-02T11:15:59;95025.63;;;10.73;69.82
85197;BME280;75566;42.698;23.346;2024-03-02T11:18:29;95024.16;;;10.64;70.77
85197;BME280;75566;42.698;23.346;2024-03-02T11:20:55;95028.19;;;10.63;70.24
85197;BME280;75566;42.698;23.346;2024-03-02T11:23:31;95025.63;;;10.65;71.13
85197;BME280;75566;42.698;23.346;2024-03-02T11:26:20;95020.69;;;10.64;70.70
85197;BME280;75566;42.698;23.346;2024-03-02T11:28:46;95026.00;;;10.69;70.36
85197;BME280;75566;42.698;23.346;2024-03-02T11:31:12;95012.13;;;10.67;70.61
85197;BME280;75566;42.698;23.346;2024-03-02T11:33:37;95016.53;;;10.63;70.33
85197;BME280;75566;42.698;23.346;2024-03-02T11:36:03;95015.03;;;10.62;70.29
85197;BME280;75566;42.698;23.346;2024-03-02T11:38:31;95017.41;;;10.57;71.68
85197;BME280;75566;42.698;23.346;2024-03-02T11:41:02;95022.72;;;10.48;71.75
85197;BME280;75566;42.698;23.346;2024-03-02T11:43:32;95022.91;;;10.50;71.01
85197;BME280;75566;42.698;23.346;2024-03-02T11:45:59;95020.69;;;10.56;70.92
85197;BME280;75566;42.698;23.346;2024-03-02T11:48:26;95024.53;;;10.53;70.67
85197;BME280;75566;42.698;23.346;2024-03-02T11:50:52;95021.41;;;10.64;71.29
85197;BME280;75566;42.698;23.346;2024-03-02T11:53:19;95023.44;;;10.71;71.16
85197;BME280;75566;42.698;23.346;2024-03-02T11:55:45;95025.44;;;10.79;70.30
85197;BME280;75566;42.698;23.346;2024-03-02T11:58:15;95021.63;;;10.82;70.12
85197;BME280;75566;42.698;23.346;2024-03-02T12:00:58;95019.59;;;10.82;69.56
85197;BME280;75566;42.698;23.346;2024-03-02T12:03:25;95027.25;;;10.91;70.06
85197;BME280;75566;42.698;23.346;2024-03-02T12:05:53;95016.13;;;10.97;70.12
85197;BME280;75566;42.698;23.346;2024-03-02T12:08:19;95021.97;;;11.01;69.67
85197;BME280;75566;42.698;23.346;2024-03-02T12:11:03;95018.31;;;11.14;69.05
85197;BME280;75566;42.698;23.346;2024-03-02T12:13:29;95007.53;;;11.08;69.56
85197;BME280;75566;42.698;23.346;2024-03-02T12:15:55;95020.69;;;11.10;68.91
85197;BME280;75566;42.698;23.346;2024-03-02T12:18:23;95014.31;;;11.07;67.06
85197;BME280;75566;42.698;23.346;2024-03-02T12:20:50;95015.03;;;11.08;68.14
85197;BME280;75566;42.698;23.346;2024-03-02T12:23:22;95015.56;;;11.06;69.43
85197;BME280;75566;42.698;23.346;2024-03-02T12:25:48;95021.44;;;11.03;69.05
85197;BME280;75566;42.698;23.346;2024-03-02T12:28:14;95028.16;;;11.02;69.86
85197;BME280;75566;42.698;23.346;2024-03-02T12:30:39;95012.84;;;10.99;68.81
85197;BME280;75566;42.698;23.346;2024-03-02T12:33:05;95019.59;;;11.05;68.66
85197;BME280;75566;42.698;23.346;2024-03-02T12:35:30;95019.59;;;11.13;68.75
85197;BME280;75566;42.698;23.346;2024-03-02T12:37:56;95009.91;;;11.12;67.60
85197;BME280;75566;42.698;23.346;2024-03-02T12:40:22;95013.38;;;11.12;67.76
85197;BME280;75566;42.698;23.346;2024-03-02T12:42:48;95012.81;;;11.14;69.27
85197;BME280;75566;42.698;23.346;2024-03-02T12:45:15;95014.63;;;11.19;68.26
85197;BME280;75566;42.698;23.346;2024-03-02T12:47:42;95019.56;;;11.28;68.39
85197;BME280;75566;42.698;23.346;2024-03-02T12:50:08;95018.25;;;11.37;68.15
85197;BME280;75566;42.698;23.346;2024-03-02T12:52:34;95022.25;;;11.44;66.33
85197;BME280;75566;42.698;23.346;2024-03-02T12:55:01;95017.69;;;11.46;66.60
85197;BME280;75566;42.698;23.346;2024-03-02T12:57:29;95026.06;;;11.48;65.64
85197;BME280;75566;42.698;23.346;2024-03-02T13:00:02;95018.59;;;11.49;66.89